Time;durP1;ratioP1;P1;durP2;ratioP2;P2;SDS_P1;SDS_P2;PMS_P1;PMS_P2;Temp;Humidity;BMP_temperature;BMP_pressure;BME280_temperature;BME280_humidity;BME280_pressure;Samples;Min_cycle;Max_cycle;Signal;HPM_P1;HPM_P2
2021/03/29 00:00:32;;;;;;;2.00;1.40;;;23.00;24.60;;;;;;4973584;28;20228;-47
2021/03/29 00:02:58;;;;;;;1.27;1.17;;;23.00;24.70;;;;;;4973322;28;20612;-46
2021/03/29 00:05:24;;;;;;;2.23;1.40;;;23.00;24.70;;;;;;4972236;28;20219;-47
2021/03/29 00:07:50;;;;;;;1.30;1.20;;;23.00;24.70;;;;;;4972374;28;20544;-48
2021/03/29 00:10:16;;;;;;;1.70;1.23;;;23.00;24.70;;;;;;4973519;28;20245;-46
2021/03/29 00:12:42;;;;;;;2.17;1.30;;;23.00;24.80;;;;;;4963958;28;20272;-44
2021/03/29 00:15:08;;;;;;;1.13;1.03;;;23.00;24.80;;;;;;4958642;28;20201;-42
2021/03/29 00:17:35;;;;;;;1.53;1.30;;;23.00;24.80;;;;;;4971647;28;20238;-45
2021/03/29 00:20:01;;;;;;;1.17;1.10;;;23.00;24.80;;;;;;4960586;28;20223;-44
2021/03/29 00:22:27;;;;;;;1.63;1.20;;;23.00;24.80;;;;;;4965612;28;20207;-48
2021/03/29 00:24:53;;;;;;;1.27;1.17;;;23.00;24.80;;;;;;4976370;23;20559;-48
2021/03/29 00:27:19;;;;;;;1.43;1.33;;;23.00;24.70;;;;;;4971562;28;20219;-50
2021/03/29 00:29:44;;;;;;;1.30;1.20;;;23.00;24.70;;;;;;4972528;28;20280;-46
2021/03/29 00:32:11;;;;;;;1.30;1.20;;;23.00;24.80;;;;;;4971326;28;20205;-48
2021/03/29 00:34:37;;;;;;;1.40;1.30;;;23.00;24.80;;;;;;4973330;28;20208;-50
2021/03/29 00:37:03;;;;;;;1.40;1.30;;;23.00;24.80;;;;;;4970279;28;20279;-45
2021/03/29 00:39:28;;;;;;;1.40;1.20;;;23.00;24.80;;;;;;4972972;28;20228;-54
2021/03/29 00:41:54;;;;;;;1.40;1.30;;;23.00;24.80;;;;;;4972480;28;20208;-54
2021/03/29 00:44:20;;;;;;;1.93;1.50;;;23.00;24.80;;;;;;4972685;28;20210;-55
2021/03/29 00:46:46;;;;;;;1.50;1.40;;;23.00;24.90;;;;;;4971706;28;20573;-44
2021/03/29 00:49:12;;;;;;;1.40;1.30;;;23.00;24.80;;;;;;4973135;28;20211;-43
2021/03/29 00:51:39;;;;;;;1.63;1.20;;;23.00;24.80;;;;;;4971512;28;20242;-49
2021/03/29 00:54:05;;;;;;;2.17;1.40;;;23.00;24.90;;;;;;4972345;28;20224;-43
2021/03/29 00:56:31;;;;;;;1.37;1.27;;;23.00;24.90;;;;;;4970910;28;20540;-44
2021/03/29 00:58:57;;;;;;;1.03;1.00;;;23.00;24.90;;;;;;4967864;28;20230;-43
2021/03/29 01:01:23;;;;;;;1.17;1.10;;;23.00;24.90;;;;;;4966522;28;20219;-50
2021/03/29 01:03:49;;;;;;;1.80;1.30;;;23.00;24.90;;;;;;4971885;28;20245;-50
2021/03/29 01:06:15;;;;;;;1.47;1.30;;;23.00;24.90;;;;;;4969077;28;20234;-42
2021/03/29 01:08:41;;;;;;;1.73;1.30;;;23.00;24.90;;;;;;4971514;28;20246;-45
2021/03/29 01:11:07;;;;;;;1.07;1.00;;;23.00;24.90;;;;;;4972674;28;20221;-43
2021/03/29 01:13:33;;;;;;;1.87;1.30;;;23.00;24.90;;;;;;4971483;28;20207;-50
2021/03/29 01:15:59;;;;;;;1.80;1.13;;;23.00;24.90;;;;;;4971689;28;20208;-43
2021/03/29 01:18:25;;;;;;;1.30;1.20;;;23.00;24.90;;;;;;4971807;28;20228;-43
2021/03/29 01:20:51;;;;;;;1.50;1.40;;;23.00;24.90;;;;;;4971449;28;20221;-46
2021/03/29 01:23:17;;;;;;;1.27;1.17;;;23.00;24.90;;;;;;4972640;28;20265;-50
2021/03/29 01:25:43;;;;;;;1.00;1.00;;;23.00;25.00;;;;;;4969911;28;20244;-43
2021/03/29 01:28:09;;;;;;;1.30;1.20;;;23.00;25.00;;;;;;4971643;28;20206;-46
2021/03/29 01:30:35;;;;;;;1.40;1.10;;;23.00;25.00;;;;;;4970616;28;22056;-42
2021/03/29 01:33:01;;;;;;;1.93;1.10;;;23.00;25.00;;;;;;4968196;28;20219;-42
2021/03/29 01:35:27;;;;;;;1.87;1.03;;;23.00;25.00;;;;;;4964696;28;20613;-43
2021/03/29 01:37:53;;;;;;;1.20;1.10;;;23.00;25.00;;;;;;4969049;28;20231;-42
2021/03/29 01:40:19;;;;;;;1.23;1.13;;;23.00;25.00;;;;;;4971000;28;20250;-52
2021/03/29 01:42:45;;;;;;;1.90;1.30;;;23.00;25.00;;;;;;4971059;28;20223;-47
2021/03/29 01:45:11;;;;;;;1.37;1.27;;;22.90;24.90;;;;;;4971809;28;20298;-43
2021/03/29 01:47:37;;;;;;;1.40;1.30;;;23.00;25.00;;;;;;4970109;28;20270;-43
2021/03/29 01:50:03;;;;;;;1.13;1.07;;;22.90;25.00;;;;;;4971917;28;20271;-45
2021/03/29 01:52:29;;;;;;;1.23;1.13;;;22.90;25.00;;;;;;4970650;28;20252;-42
2021/03/29 01:54:55;;;;;;;1.17;1.07;;;23.00;25.10;;;;;;4970743;28;20695;-46
2021/03/29 01:57:21;;;;;;;1.17;1.17;;;22.90;25.00;;;;;;4969921;28;20243;-44
2021/03/29 01:59:47;;;;;;;1.13;1.03;;;22.90;25.00;;;;;;4970512;28;20224;-42
2021/03/29 02:02:13;;;;;;;3.50;1.60;;;22.90;25.00;;;;;;4971985;28;20209;-43
2021/03/29 02:04:39;;;;;;;2.23;1.60;;;22.90;25.00;;;;;;4969062;28;20220;-44
2021/03/29 02:07:06;;;;;;;1.17;1.07;;;23.00;25.10;;;;;;4970116;28;20226;-44
2021/03/29 02:09:32;;;;;;;2.87;1.30;;;22.90;25.00;;;;;;4971283;28;20699;-43
2021/03/29 02:11:58;;;;;;;1.60;1.13;;;22.90;25.00;;;;;;4970915;28;20230;-45
2021/03/29 02:14:24;;;;;;;1.50;1.40;;;22.90;25.00;;;;;;4970917;28;20204;-42
2021/03/29 02:16:50;;;;;;;1.30;1.13;;;22.90;25.10;;;;;;4970887;28;20227;-44
2021/03/29 02:19:16;;;;;;;1.13;1.10;;;22.90;25.10;;;;;;4978111;28;20685;-44
2021/03/29 02:21:42;;;;;;;1.40;1.30;;;22.90;25.00;;;;;;4970665;28;20215;-51
2021/03/29 02:24:08;;;;;;;1.17;1.13;;;22.90;25.10;;;;;;4969791;28;20204;-45
2021/03/29 02:26:34;;;;;;;2.00;1.30;;;22.90;25.10;;;;;;4971014;28;20362;-42
2021/03/29 02:29:00;;;;;;;1.50;1.17;;;22.90;25.10;;;;;;4969965;28;20242;-46
2021/03/29 02:31:26;;;;;;;1.53;1.20;;;22.90;25.10;;;;;;4971162;28;20253;-42
2021/03/29 02:33:52;;;;;;;1.60;1.20;;;22.90;25.10;;;;;;4968067;28;20309;-51
2021/03/29 02:36:18;;;;;;;1.10;1.10;;;22.90;25.10;;;;;;4969965;28;20215;-53
2021/03/29 02:38:44;;;;;;;1.20;1.10;;;22.90;25.20;;;;;;4970029;28;20599;-53
2021/03/29 02:41:10;;;;;;;1.80;1.20;;;22.90;25.10;;;;;;4971145;28;20207;-52
2021/03/29 02:43:36;;;;;;;1.20;1.10;;;22.90;25.10;;;;;;4970511;28;20257;-45
2021/03/29 02:46:02;;;;;;;1.07;1.07;;;22.90;25.10;;;;;;4960248;28;20209;-46
2021/03/29 02:48:28;;;;;;;2.40;1.20;;;22.90;25.20;;;;;;4969452;28;20218;-48
2021/03/29 02:50:54;;;;;;;0.97;0.97;;;22.90;25.10;;;;;;4971250;28;20243;-48
2021/03/29 02:53:20;;;;;;;1.30;1.20;;;22.90;25.20;;;;;;4969989;28;20590;-48
2021/03/29 02:55:46;;;;;;;1.97;1.33;;;22.90;25.20;;;;;;4974071;28;20210;-44
2021/03/29 02:58:12;;;;;;;1.40;1.23;;;22.90;25.20;;;;;;4973821;28;20294;-47
2021/03/29 03:00:38;;;;;;;2.30;1.20;;;22.90;25.20;;;;;;4973702;28;20679;-42
2021/03/29 03:03:04;;;;;;;1.80;1.20;;;22.90;25.20;;;;;;4974290;28;20281;-44
2021/03/29 03:05:30;;;;;;;1.20;1.10;;;22.90;25.20;;;;;;4974897;28;20289;-42
2021/03/29 03:07:56;;;;;;;1.73;1.20;;;22.90;25.20;;;;;;4972410;28;20278;-43
2021/03/29 03:10:22;;;;;;;2.60;1.33;;;23.00;25.40;;;;;;4975113;28;20258;-50
2021/03/29 03:12:48;;;;;;;1.30;1.20;;;23.00;25.40;;;;;;4974276;28;20303;-47
2021/03/29 03:15:14;;;;;;;0.90;0.90;;;23.00;25.30;;;;;;4974259;28;20212;-41
2021/03/29 03:17:40;;;;;;;2.30;1.20;;;22.90;25.30;;;;;;4973536;28;20207;-45
2021/03/29 03:20:06;;;;;;;2.63;1.50;;;22.90;25.30;;;;;;4974301;28;20238;-46
2021/03/29 03:22:32;;;;;;;1.60;1.13;;;22.90;25.30;;;;;;4974569;28;20210;-55
2021/03/29 03:24:58;;;;;;;1.90;1.27;;;22.90;25.30;;;;;;4974383;28;20661;-44
2021/03/29 03:27:24;;;;;;;1.97;1.20;;;22.90;25.30;;;;;;4973047;28;20223;-42
2021/03/29 03:29:50;;;;;;;1.73;1.43;;;22.90;25.30;;;;;;4974518;28;20228;-49
2021/03/29 03:32:16;;;;;;;1.50;1.30;;;22.90;25.30;;;;;;4974085;28;20226;-44
2021/03/29 03:34:42;;;;;;;1.33;1.20;;;22.90;25.30;;;;;;4972035;28;20204;-51
2021/03/29 03:37:08;;;;;;;3.10;1.20;;;22.90;25.30;;;;;;4965183;28;20278;-44
2021/03/29 03:39:34;;;;;;;1.23;1.13;;;22.90;25.30;;;;;;4973095;28;20234;-44
2021/03/29 03:42:00;;;;;;;1.70;1.10;;;22.90;25.30;;;;;;4973362;28;20203;-42
2021/03/29 03:44:26;;;;;;;1.30;1.20;;;23.00;25.30;;;;;;4973898;28;20322;-44
2021/03/29 03:46:52;;;;;;;1.83;1.10;;;22.90;25.30;;;;;;4973164;28;20204;-44
2021/03/29 03:49:18;;;;;;;1.17;1.07;;;22.90;25.20;;;;;;4973251;28;20682;-45
2021/03/29 03:51:44;;;;;;;2.50;1.43;;;22.90;25.30;;;;;;4973798;28;20218;-42
2021/03/29 03:54:10;;;;;;;2.53;1.43;;;22.90;25.80;;;;;;4973947;28;20516;-42
2021/03/29 03:56:36;;;;;;;2.33;1.20;;;22.90;25.30;;;;;;4973168;28;20211;-43
2021/03/29 03:59:02;;;;;;;1.33;1.23;;;22.90;25.30;;;;;;4971700;28;20230;-49
2021/03/29 04:01:28;;;;;;;2.30;1.20;;;22.90;25.30;;;;;;4972838;28;20209;-45
2021/03/29 04:03:54;;;;;;;1.23;1.13;;;22.90;25.30;;;;;;4974141;28;20666;-44
2021/03/29 04:06:21;;;;;;;1.40;1.30;;;22.90;25.80;;;;;;4971401;28;20203;-46
2021/03/29 04:08:47;;;;;;;1.53;1.30;;;22.90;25.30;;;;;;4972181;28;20210;-44
2021/03/29 04:11:13;;;;;;;1.43;1.20;;;22.90;25.30;;;;;;4967352;28;20199;-46
2021/03/29 04:13:39;;;;;;;1.10;1.10;;;22.90;25.20;;;;;;4972343;28;20216;-47
2021/03/29 04:16:05;;;;;;;1.20;1.10;;;22.90;25.20;;;;;;4974027;28;20216;-42
2021/03/29 04:18:31;;;;;;;2.60;1.23;;;22.90;25.20;;;;;;4972206;28;20234;-44
2021/03/29 04:20:57;;;;;;;1.83;1.27;;;22.90;25.20;;;;;;4973608;28;20552;-45
2021/03/29 04:23:23;;;;;;;2.07;1.40;;;22.90;25.20;;;;;;4973609;28;20679;-46
2021/03/29 04:25:49;;;;;;;1.70;1.30;;;22.90;25.20;;;;;;4973116;28;20230;-44
2021/03/29 04:28:15;;;;;;;1.43;1.17;;;22.90;25.20;;;;;;4973371;28;20337;-42
2021/03/29 04:30:41;;;;;;;1.40;1.13;;;22.90;25.20;;;;;;4971605;28;20215;-41
2021/03/29 04:33:07;;;;;;;1.37;1.27;;;22.90;25.20;;;;;;4972899;28;20359;-47
2021/03/29 04:35:34;;;;;;;1.40;1.17;;;22.90;25.20;;;;;;4972817;28;20691;-49
2021/03/29 04:38:00;;;;;;;1.23;1.10;;;22.90;25.20;;;;;;4972179;28;20242;-46
2021/03/29 04:40:26;;;;;;;1.47;1.37;;;22.90;25.20;;;;;;4971445;28;20236;-47
2021/03/29 04:42:52;;;;;;;2.00;1.30;;;22.90;25.20;;;;;;4971854;28;20211;-45
2021/03/29 04:45:18;;;;;;;1.20;1.10;;;22.90;25.30;;;;;;4972473;28;20601;-47
2021/03/29 04:47:44;;;;;;;1.60;1.33;;;22.90;25.30;;;;;;4972384;28;20553;-52
2021/03/29 04:50:10;;;;;;;2.80;1.30;;;22.90;25.30;;;;;;4973239;28;20235;-51
2021/03/29 04:52:36;;;;;;;1.67;1.40;;;22.90;25.30;;;;;;4972086;28;20222;-42
2021/03/29 04:55:02;;;;;;;1.73;1.23;;;22.90;25.30;;;;;;4972433;28;20211;-51
2021/03/29 04:57:28;;;;;;;2.00;1.10;;;22.90;25.20;;;;;;4971661;28;20207;-45
2021/03/29 04:59:54;;;;;;;1.53;1.30;;;22.90;25.30;;;;;;4971806;28;20610;-46
2021/03/29 05:02:20;;;;;;;1.10;1.00;;;22.90;25.20;;;;;;4972618;28;20204;-48
2021/03/29 05:04:46;;;;;;;1.30;1.10;;;22.90;25.30;;;;;;4971903;28;20218;-45
2021/03/29 05:07:12;;;;;;;3.47;1.53;;;22.90;25.30;;;;;;4971426;28;20655;-43
2021/03/29 05:09:38;;;;;;;1.30;1.20;;;22.90;25.30;;;;;;4972256;28;20651;-50
2021/03/29 05:12:08;;;;;;;1.30;1.20;;;22.90;25.30;;;;;;4972295;28;20588;-51
2021/03/29 05:14:34;;;;;;;1.27;1.10;;;22.90;25.30;;;;;;4972876;28;20699;-48
2021/03/29 05:17:00;;;;;;;1.40;1.30;;;22.90;25.20;;;;;;4971265;28;20300;-45
2021/03/29 05:19:26;;;;;;;3.60;1.30;;;22.90;25.80;;;;;;4980303;28;20233;-44
2021/03/29 05:21:52;;;;;;;1.00;1.00;;;22.90;25.20;;;;;;4971891;28;20210;-43
2021/03/29 05:24:19;;;;;;;1.93;1.20;;;22.90;25.30;;;;;;4972515;28;20207;-42
2021/03/29 05:26:45;;;;;;;2.73;1.20;;;22.90;25.30;;;;;;4970580;28;20340;-44
2021/03/29 05:29:11;;;;;;;1.50;1.40;;;22.90;25.20;;;;;;4972471;28;20227;-43
2021/03/29 05:31:40;;;;;;;2.03;1.20;;;22.90;25.20;;;;;;4971858;28;20733;-48
2021/03/29 05:34:06;;;;;;;1.27;1.23;;;22.90;25.20;;;;;;4972035;28;20211;-44
2021/03/29 05:36:32;;;;;;;1.93;1.30;;;22.90;25.20;;;;;;4970421;28;20270;-45
2021/03/29 05:38:58;;;;;;;1.87;1.40;;;22.90;25.30;;;;;;4970866;28;20240;-43
2021/03/29 05:41:24;;;;;;;2.03;1.10;;;22.90;25.20;;;;;;4971599;28;20219;-42
2021/03/29 05:43:50;;;;;;;2.50;1.20;;;22.90;25.20;;;;;;4971913;28;20214;-50
2021/03/29 05:46:16;;;;;;;2.20;1.23;;;22.90;25.80;;;;;;4971195;28;20588;-45
2021/03/29 05:48:42;;;;;;;1.63;1.33;;;22.90;25.20;;;;;;4972076;28;20233;-47
2021/03/29 05:51:08;;;;;;;1.00;1.00;;;22.90;25.20;;;;;;4971277;28;20324;-46
2021/03/29 05:53:34;;;;;;;1.40;1.30;;;22.90;25.20;;;;;;4967147;28;20210;-43
2021/03/29 05:56:00;;;;;;;1.40;1.30;;;22.90;25.20;;;;;;4971877;28;20215;-44
2021/03/29 05:58:41;;;;;;;1.40;1.30;;;22.90;25.20;;;;;;4970676;28;20589;-43
2021/03/29 06:01:07;;;;;;;1.93;1.20;;;23.00;25.30;;;;;;4969583;28;20262;-45
2021/03/29 06:03:34;;;;;;;1.43;1.30;;;22.90;25.20;;;;;;4968493;28;20727;-43
2021/03/29 06:06:00;;;;;;;2.00;1.50;;;22.90;25.20;;;;;;4966002;28;20683;-44
2021/03/29 06:08:26;;;;;;;4.37;1.47;;;23.00;25.70;;;;;;4954183;28;20231;-47
2021/03/29 06:10:54;;;;;;;3.50;1.73;;;23.00;28.50;;;;;;4967820;28;20200;-60
2021/03/29 06:13:20;;;;;;;2.03;1.20;;;23.10;28.10;;;;;;4970985;28;20207;-59
2021/03/29 06:15:46;;;;;;;2.47;1.40;;;23.10;28.10;;;;;;4965606;28;20228;-48
2021/03/29 06:18:12;;;;;;;2.10;1.30;;;23.10;28.10;;;;;;4967914;28;20589;-49
2021/03/29 06:20:38;;;;;;;2.57;1.30;;;23.10;27.90;;;;;;4963595;28;20216;-47
2021/03/29 06:23:04;;;;;;;7.17;2.03;;;23.00;27.40;;;;;;4956459;28;20212;-53
2021/03/29 06:25:30;;;;;;;5.17;1.80;;;23.00;29.20;;;;;;4970692;28;20225;-51
2021/03/29 06:27:56;;;;;;;6.27;1.70;;;23.00;28.00;;;;;;4970474;28;20226;-52
2021/03/29 06:30:22;;;;;;;8.07;2.20;;;23.00;27.90;;;;;;4969754;28;20279;-45
2021/03/29 06:32:48;;;;;;;4.90;2.07;;;23.00;28.70;;;;;;4969606;28;20263;-47
2021/03/29 06:35:14;;;;;;;2.33;1.60;;;23.00;28.90;;;;;;4970122;28;20203;-47
2021/03/29 06:37:40;;;;;;;7.00;2.17;;;23.00;29.50;;;;;;4970338;28;20202;-48
2021/03/29 06:40:06;;;;;;;9.30;2.50;;;23.00;30.20;;;;;;4969108;28;20232;-50
2021/03/29 06:42:32;;;;;;;8.50;3.00;;;22.90;30.30;;;;;;4970236;28;20665;-46
2021/03/29 06:44:58;;;;;;;5.80;2.40;;;22.90;30.00;;;;;;4970179;28;20203;-46
2021/03/29 06:47:25;;;;;;;7.80;2.70;;;22.90;29.60;;;;;;4969860;28;20752;-46
2021/03/29 06:49:51;;;;;;;5.17;2.47;;;22.90;29.00;;;;;;4965437;28;20809;-48
2021/03/29 06:52:17;;;;;;;8.33;3.00;;;22.90;29.60;;;;;;4969265;28;20206;-48
2021/03/29 06:54:43;;;;;;;4.77;2.30;;;22.60;24.80;;;;;;4961981;28;20207;-52
2021/03/29 06:57:09;;;;;;;9.97;2.50;;;20.10;22.10;;;;;;4967417;28;20269;-48
2021/03/29 06:59:35;;;;;;;3.63;2.17;;;20.40;25.40;;;;;;4969668;28;20347;-50
2021/03/29 07:02:06;;;;;;;4.20;2.17;;;20.50;22.60;;;;;;4968488;28;20205;-51
2021/03/29 07:04:33;;;;;;;4.77;2.37;;;21.10;25.40;;;;;;4970468;28;20636;-48
2021/03/29 07:06:59;;;;;;;3.70;2.00;;;21.50;26.60;;;;;;4969226;28;20239;-50
2021/03/29 07:09:25;;;;;;;4.03;1.90;;;21.80;26.90;;;;;;4969689;28;20232;-48
2021/03/29 07:11:51;;;;;;;2.83;1.73;;;22.10;26.90;;;;;;4969336;28;20674;-52
2021/03/29 07:14:17;;;;;;;5.50;2.03;;;22.30;25.90;;;;;;4964041;28;20209;-49
2021/03/29 07:16:43;;;;;;;4.10;1.67;;;22.40;26.30;;;;;;4969256;28;20202;-46
2021/03/29 07:19:09;;;;;;;2.30;1.50;;;22.60;25.70;;;;;;4966433;28;20233;-52
2021/03/29 07:21:35;;;;;;;4.10;2.03;;;22.70;25.60;;;;;;4968376;28;20201;-50
2021/03/29 07:24:01;;;;;;;2.90;2.10;;;22.90;26.20;;;;;;4968330;28;20226;-49
2021/03/29 07:26:27;;;;;;;4.87;1.77;;;22.90;26.20;;;;;;4967664;28;21059;-46
2021/03/29 07:28:53;;;;;;;4.40;2.13;;;22.90;27.00;;;;;;4978287;28;20227;-48
2021/03/29 07:31:19;;;;;;;5.30;1.90;;;23.00;27.50;;;;;;4961659;28;20537;-46
2021/03/29 07:33:45;;;;;;;4.37;1.73;;;23.20;28.00;;;;;;4968125;28;20230;-46
2021/03/29 07:36:11;;;;;;;3.53;1.80;;;23.20;28.00;;;;;;4966706;28;20223;-44
2021/03/29 07:38:37;;;;;;;2.27;1.43;;;23.20;27.60;;;;;;4965245;28;20273;-52
2021/03/29 07:41:03;;;;;;;1.87;1.70;;;23.10;27.20;;;;;;4970231;28;20216;-45
2021/03/29 07:43:30;;;;;;;3.63;1.60;;;23.00;27.10;;;;;;4971579;28;20204;-52
2021/03/29 07:45:56;;;;;;;3.33;1.70;;;23.10;27.10;;;;;;4968874;28;20666;-47
2021/03/29 07:48:22;;;;;;;3.17;1.63;;;23.10;27.20;;;;;;4965070;28;20278;-43
2021/03/29 07:50:48;;;;;;;2.60;1.50;;;23.10;27.30;;;;;;4972567;28;20207;-51
2021/03/29 07:53:17;;;;;;;4.07;1.50;;;23.10;27.90;;;;;;4972937;28;20223;-50
2021/03/29 07:55:43;;;;;;;5.63;1.73;;;23.10;28.10;;;;;;4972187;28;20209;-47
2021/03/29 07:58:11;;;;;;;5.77;2.00;;;23.10;28.10;;;;;;4973973;28;20644;-49
2021/03/29 08:00:37;;;;;;;6.40;2.00;;;23.10;27.70;;;;;;4973215;28;20216;-47
2021/03/29 08:03:03;;;;;;;6.97;2.23;;;23.00;28.00;;;;;;4968290;28;21083;-45
2021/03/29 08:05:29;;;;;;;3.70;1.90;;;23.00;28.00;;;;;;4961045;28;20231;-48
2021/03/29 08:07:57;;;;;;;5.47;2.10;;;23.10;28.10;;;;;;4964212;28;20220;-54
2021/03/29 08:10:23;;;;;;;2.23;1.60;;;23.10;28.10;;;;;;4972341;28;20208;-56
2021/03/29 08:12:49;;;;;;;8.30;2.40;;;23.10;28.10;;;;;;4973094;28;20215;-45
2021/03/29 08:15:14;;;;;;;5.23;2.43;;;23.10;28.10;;;;;;4972567;28;20209;-48
2021/03/29 08:17:51;;;;;;;3.97;1.93;;;23.10;28.00;;;;;;4971281;28;20223;-49
2021/03/29 08:20:17;;;;;;;5.87;1.50;;;23.10;27.80;;;;;;4981772;28;20208;-52
2021/03/29 08:22:43;;;;;;;3.60;1.70;;;23.10;28.00;;;;;;4974299;28;20207;-47
2021/03/29 08:25:09;;;;;;;3.30;1.50;;;23.10;28.10;;;;;;4973930;28;20273;-47
2021/03/29 08:27:35;;;;;;;8.10;2.00;;;23.10;28.00;;;;;;4973966;28;20196;-47
2021/03/29 08:30:01;;;;;;;5.43;1.50;;;23.10;28.10;;;;;;4973914;28;20235;-47
2021/03/29 08:32:29;;;;;;;5.23;1.53;;;23.10;28.10;;;;;;4973874;28;20671;-46
2021/03/29 08:34:55;;;;;;;4.97;1.33;;;23.10;28.10;;;;;;4974093;28;20196;-49
2021/03/29 08:37:21;;;;;;;3.50;1.60;;;23.10;28.10;;;;;;4973659;28;20625;-51
2021/03/29 08:39:47;;;;;;;3.50;1.47;;;23.10;28.10;;;;;;4974690;28;20254;-57
2021/03/29 08:42:13;;;;;;;5.57;2.27;;;23.20;28.20;;;;;;4968872;28;20199;-46
2021/03/29 08:44:40;;;;;;;3.00;1.70;;;23.10;28.10;;;;;;4969889;28;20214;-44
2021/03/29 08:47:06;;;;;;;6.37;1.80;;;23.20;28.20;;;;;;4964500;28;20208;-48
2021/03/29 08:49:32;;;;;;;4.13;1.50;;;23.20;27.70;;;;;;4953658;28;20721;-46
2021/03/29 08:51:58;;;;;;;3.10;1.60;;;23.10;27.20;;;;;;4964841;28;20205;-49
2021/03/29 08:54:24;;;;;;;2.73;1.73;;;23.10;26.30;;;;;;4970872;28;20247;-48
2021/03/29 08:56:54;;;;;;;2.50;1.53;;;23.10;26.10;;;;;;4959997;28;20865;-46
2021/03/29 08:59:20;;;;;;;2.23;1.73;;;23.00;23.80;;;;;;4969799;28;20554;-45
2021/03/29 09:01:46;;;;;;;2.97;1.87;;;23.00;24.20;;;;;;4965713;28;20205;-47
2021/03/29 09:04:12;;;;;;;6.70;2.20;;;22.90;24.10;;;;;;4963798;28;20204;-43
2021/03/29 09:06:38;;;;;;;5.23;2.03;;;22.90;23.40;;;;;;4971196;28;20634;-44
2021/03/29 09:09:04;;;;;;;3.10;1.60;;;23.00;23.10;;;;;;4961988;28;20222;-54
2021/03/29 09:11:30;;;;;;;5.63;2.37;;;23.00;23.70;;;;;;4966462;28;20568;-57
2021/03/29 09:13:56;;;;;;;2.70;1.70;;;23.00;23.80;;;;;;4968123;28;20205;-56
2021/03/29 09:16:22;;;;;;;6.70;2.30;;;23.00;23.70;;;;;;4966077;28;20622;-58
2021/03/29 09:18:48;;;;;;;9.70;2.43;;;23.00;23.60;;;;;;4969852;28;20239;-57
2021/03/29 09:21:14;;;;;;;5.33;2.40;;;23.00;23.30;;;;;;4971304;28;20227;-56
2021/03/29 09:23:40;;;;;;;3.03;1.80;;;23.00;24.10;;;;;;4971059;28;20207;-56
2021/03/29 09:26:06;;;;;;;4.23;1.80;;;23.00;24.10;;;;;;4971318;28;20215;-55
2021/03/29 09:28:34;;;;;;;4.20;1.70;;;23.00;24.00;;;;;;4965777;28;20612;-54
2021/03/29 09:31:00;;;;;;;4.33;1.97;;;23.00;24.20;;;;;;4969932;28;20247;-46
2021/03/29 09:33:26;;;;;;;3.33;1.53;;;23.10;23.70;;;;;;4971766;28;20620;-46
2021/03/29 09:35:52;;;;;;;8.33;2.00;;;23.00;24.10;;;;;;4971046;28;20215;-43
2021/03/29 09:38:18;;;;;;;4.80;1.60;;;23.00;24.20;;;;;;4968488;28;20698;-46
2021/03/29 09:40:44;;;;;;;3.97;2.03;;;23.00;24.10;;;;;;4962585;28;20802;-51
2021/03/29 09:43:10;;;;;;;3.50;1.90;;;23.10;24.20;;;;;;4968798;28;20200;-48
2021/03/29 09:45:36;;;;;;;5.23;1.90;;;23.10;24.10;;;;;;4969686;28;20224;-45
2021/03/29 09:48:02;;;;;;;2.33;1.70;;;23.00;24.10;;;;;;4960145;28;20276;-44
2021/03/29 09:50:28;;;;;;;4.63;1.70;;;23.10;24.20;;;;;;4965667;28;20202;-42
2021/03/29 09:52:54;;;;;;;5.47;2.10;;;23.10;24.00;;;;;;4967963;28;20218;-45
2021/03/29 09:55:20;;;;;;;2.73;1.67;;;23.10;23.70;;;;;;4970583;28;20212;-47
2021/03/29 09:57:46;;;;;;;5.10;1.80;;;23.10;24.20;;;;;;4971354;28;20583;-45
2021/03/29 10:00:12;;;;;;;4.77;1.60;;;23.10;24.90;;;;;;4971580;28;20243;-45
2021/03/29 10:02:38;;;;;;;6.57;2.40;;;23.10;25.00;;;;;;4967171;28;20211;-48
2021/03/29 10:05:04;;;;;;;4.50;2.10;;;23.10;24.20;;;;;;4970794;28;20399;-46
2021/03/29 10:07:30;;;;;;;5.47;2.10;;;23.10;24.00;;;;;;4967582;28;20227;-50
2021/03/29 10:09:56;;;;;;;5.60;2.00;;;23.10;24.40;;;;;;4970336;28;20207;-43
2021/03/29 10:12:22;;;;;;;5.90;2.50;;;23.20;24.10;;;;;;4970968;28;20235;-47
2021/03/29 10:14:48;;;;;;;4.57;1.80;;;23.10;24.20;;;;;;4971474;28;20294;-50
2021/03/29 10:17:14;;;;;;;6.63;1.87;;;23.10;23.40;;;;;;4969914;28;20226;-44
2021/03/29 10:19:40;;;;;;;4.63;2.20;;;23.10;22.80;;;;;;4974465;28;20231;-44
2021/03/29 10:22:07;;;;;;;3.90;2.00;;;23.10;22.70;;;;;;4965640;28;20204;-49
2021/03/29 10:24:33;;;;;;;3.13;1.87;;;23.00;22.20;;;;;;4965629;28;20215;-48
2021/03/29 10:26:59;;;;;;;4.07;2.30;;;23.00;21.90;;;;;;4966806;28;20227;-45
2021/03/29 10:29:25;;;;;;;3.60;1.80;;;23.00;21.80;;;;;;4970475;28;20739;-46
2021/03/29 10:31:51;;;;;;;6.40;2.03;;;23.00;21.70;;;;;;4969470;28;20209;-48
2021/03/29 10:34:17;;;;;;;2.23;2.00;;;23.00;22.00;;;;;;4966706;28;20199;-49
2021/03/29 10:36:43;;;;;;;3.70;2.10;;;23.00;22.00;;;;;;4962741;28;20228;-47
2021/03/29 10:39:09;;;;;;;3.00;1.60;;;23.00;22.40;;;;;;4958027;28;20295;-46
2021/03/29 10:41:35;;;;;;;3.80;1.60;;;23.10;22.60;;;;;;4966439;28;20207;-44
2021/03/29 10:44:01;;;;;;;3.70;1.57;;;23.10;22.80;;;;;;4962652;28;20204;-52
2021/03/29 10:46:28;;;;;;;4.07;1.70;;;23.10;22.80;;;;;;4970815;28;20637;-54
2021/03/29 10:48:54;;;;;;;2.90;1.77;;;23.10;22.40;;;;;;4963511;28;20204;-49
2021/03/29 10:51:20;;;;;;;1.60;1.50;;;23.10;22.80;;;;;;4968118;28;20200;-48
2021/03/29 10:53:46;;;;;;;3.40;1.77;;;23.10;22.60;;;;;;4970995;28;20889;-51
2021/03/29 10:56:12;;;;;;;2.07;1.67;;;23.10;21.90;;;;;;4967225;28;20223;-50
2021/03/29 10:58:38;;;;;;;2.57;1.57;;;23.10;21.80;;;;;;4971104;28;20222;-50
2021/03/29 11:01:04;;;;;;;2.73;1.57;;;23.10;22.30;;;;;;4969601;28;20707;-54
2021/03/29 11:03:30;;;;;;;3.33;1.60;;;23.00;22.00;;;;;;4970062;28;20203;-58
2021/03/29 11:05:56;;;;;;;2.33;1.70;;;23.00;21.80;;;;;;4967992;28;20240;-45
2021/03/29 11:08:22;;;;;;;3.07;1.57;;;23.00;22.00;;;;;;4970869;28;20282;-48
2021/03/29 11:10:48;;;;;;;2.20;1.60;;;23.00;21.80;;;;;;4969718;28;20207;-50
2021/03/29 11:13:14;;;;;;;2.63;1.60;;;23.00;21.50;;;;;;4968501;28;20263;-52
2021/03/29 11:15:40;;;;;;;2.30;1.57;;;23.00;21.60;;;;;;4971879;28;20223;-50
2021/03/29 11:18:07;;;;;;;2.60;1.50;;;23.00;21.50;;;;;;4973270;28;20211;-47
2021/03/29 11:20:33;;;;;;;2.93;1.70;;;23.00;21.20;;;;;;4975130;28;20219;-47
2021/03/29 11:22:59;;;;;;;1.60;1.50;;;23.00;21.10;;;;;;4967758;28;20294;-44
2021/03/29 11:25:26;;;;;;;2.97;1.77;;;23.00;21.00;;;;;;4981329;28;20574;-44
2021/03/29 11:27:52;;;;;;;2.50;1.77;;;23.00;21.00;;;;;;4972361;28;20207;-43
2021/03/29 11:30:18;;;;;;;2.17;1.77;;;23.00;21.40;;;;;;4974721;28;20207;-44
2021/03/29 11:32:44;;;;;;;3.53;1.80;;;23.10;21.70;;;;;;4983285;28;20211;-44
2021/03/29 11:35:10;;;;;;;8.17;5.23;;;23.00;21.40;;;;;;4972225;28;20518;-46
2021/03/29 11:37:36;;;;;;;47.43;22.73;;;23.00;21.80;;;;;;4973783;28;20224;-44
2021/03/29 11:40:02;;;;;;;33.90;16.73;;;23.10;22.40;;;;;;4971161;28;20240;-45
2021/03/29 11:42:28;;;;;;;26.73;13.67;;;23.10;22.60;;;;;;4974587;28;20624;-46
2021/03/29 11:44:54;;;;;;;22.50;11.83;;;23.10;22.80;;;;;;4972362;28;20204;-47
2021/03/29 11:47:21;;;;;;;16.07;9.57;;;23.10;22.80;;;;;;4973399;28;20279;-46
2021/03/29 11:49:47;;;;;;;17.20;10.07;;;23.10;22.50;;;;;;4972019;28;20306;-47
2021/03/29 11:52:13;;;;;;;17.93;10.23;;;23.10;22.60;;;;;;4976880;28;20211;-46
2021/03/29 11:54:39;;;;;;;16.30;8.37;;;23.10;22.30;;;;;;4974057;28;20208;-51
2021/03/29 11:57:05;;;;;;;12.67;7.57;;;23.10;22.00;;;;;;4974565;28;20301;-45
2021/03/29 11:59:31;;;;;;;12.93;6.90;;;23.00;21.80;;;;;;4973448;28;20286;-45
2021/03/29 12:02:00;;;;;;;12.53;6.10;;;23.00;21.50;;;;;;4976712;28;20574;-49
2021/03/29 12:04:30;;;;;;;8.10;5.33;;;23.00;21.40;;;;;;4974627;28;20630;-53
2021/03/29 12:07:00;;;;;;;9.63;5.40;;;23.00;21.30;;;;;;4973983;28;20246;-56
2021/03/29 12:09:30;;;;;;;8.63;5.27;;;23.00;21.10;;;;;;4974498;28;20243;-51
2021/03/29 12:11:59;;;;;;;11.43;5.53;;;23.00;21.10;;;;;;4974747;28;20231;-59
2021/03/29 12:14:25;;;;;;;8.37;4.23;;;23.00;20.90;;;;;;4973704;28;20235;-57
2021/03/29 12:16:52;;;;;;;8.77;4.80;;;23.00;20.70;;;;;;4973868;28;20219;-53
2021/03/29 12:19:18;;;;;;;6.20;3.97;;;23.00;20.60;;;;;;4972987;28;20750;-51
2021/03/29 12:21:44;;;;;;;6.80;3.90;;;23.00;20.30;;;;;;4974049;28;20211;-51
2021/03/29 12:24:12;;;;;;;6.77;3.97;;;23.00;20.20;;;;;;4978272;28;20227;-52
2021/03/29 12:26:38;;;;;;;6.27;3.20;;;23.00;20.20;;;;;;4970078;28;20593;-51
2021/03/29 12:29:05;;;;;;;6.83;3.30;;;23.00;20.20;;;;;;4972754;28;20221;-53
2021/03/29 12:31:31;;;;;;;4.27;3.03;;;23.00;20.20;;;;;;4972474;28;20207;-52
2021/03/29 12:33:57;;;;;;;4.33;3.00;;;23.00;20.20;;;;;;4974319;28;20223;-48
2021/03/29 12:36:25;;;;;;;3.70;2.70;;;23.00;19.90;;;;;;4972444;28;20227;-46
2021/03/29 12:38:56;;;;;;;5.37;2.77;;;23.00;19.80;;;;;;4972954;28;20594;-46